sensor_id;sensor_type;location;lat;lon;timestamp;temperature;humidity
7000;DHT22;3540;53.242;10.408;2023-12-22T00:01:14;4.00;99.90
7000;DHT22;3540;53.242;10.408;2023-12-22T00:03:43;4.00;99.90
7000;DHT22;3540;53.242;10.408;2023-12-22T00:06:08;3.90;99.90
7000;DHT22;3540;53.242;10.408;2023-12-22T00:08:37;3.90;99.90
7000;DHT22;3540;53.242;10.408;2023-12-22T00:11:02;3.90;99.90
7000;DHT22;3540;53.242;10.408;2023-12-22T00:13:28;3.90;99.90
7000;DHT22;3540;53.242;10.408;2023-12-22T00:15:54;3.80;99.90
7000;DHT22;3540;53.242;10.408;2023-12-22T00:18:19;3.80;99.90
7000;DHT22;3540;53.242;10.408;2023-12-22T00:20:45;3.80;99.90
7000;DHT22;3540;53.242;10.408;2023-12-22T00:23:10;3.80;99.90
7000;DHT22;3540;53.242;10.408;2023-12-22T00:25:36;3.70;99.90
7000;DHT22;3540;53.242;10.408;2023-12-22T00:28:03;3.70;99.90
7000;DHT22;3540;53.242;10.408;2023-12-22T00:30:28;3.70;99.90
7000;DHT22;3540;53.242;10.408;2023-12-22T00:32:54;3.70;99.90
7000;DHT22;3540;53.242;10.408;2023-12-22T00:35:20;3.80;99.90
7000;DHT22;3540;53.242;10.408;2023-12-22T00:37:45;3.80;99.90
7000;DHT22;3540;53.242;10.408;2023-12-22T00:40:11;3.80;99.90
7000;DHT22;3540;53.242;10.408;2023-12-22T00:42:37;3.80;99.90
7000;DHT22;3540;53.242;10.408;2023-12-22T00:45:03;3.80;99.90
7000;DHT22;3540;53.242;10.408;2023-12-22T00:47:29;3.90;99.90
7000;DHT22;3540;53.242;10.408;2023-12-22T00:49:55;3.90;99.90
7000;DHT22;3540;53.242;10.408;2023-12-22T00:52:20;3.90;99.90
7000;DHT22;3540;53.242;10.408;2023-12-22T00:54:46;3.90;99.90
7000;DHT22;3540;53.242;10.408;2023-12-22T00:57:12;3.90;99.90
7000;DHT22;3540;53.242;10.408;2023-12-22T00:59:38;3.80;99.90
7000;DHT22;3540;53.242;10.408;2023-12-22T01:02:10;3.80;99.90
7000;DHT22;3540;53.242;10.408;2023-12-22T01:04:36;3.70;99.90
7000;DHT22;3540;53.242;10.408;2023-12-22T01:07:01;3.60;99.90
7000;DHT22;3540;53.242;10.408;2023-12-22T01:09:27;3.50;99.90
7000;DHT22;3540;53.242;10.408;2023-12-22T01:11:53;3.40;99.90
7000;DHT22;3540;53.242;10.408;2023-12-22T01:14:18;3.40;99.90
7000;DHT22;3540;53.242;10.408;2023-12-22T01:16:44;3.40;99.90
7000;DHT22;3540;53.242;10.408;2023-12-22T01:19:09;3.40;99.90
7000;DHT22;3540;53.242;10.408;2023-12-22T01:21:35;3.40;99.90
7000;DHT22;3540;53.242;10.408;2023-12-22T01:24:01;3.40;99.90
7000;DHT22;3540;53.242;10.408;2023-12-22T01:26:26;3.30;99.90
7000;DHT22;3540;53.242;10.408;2023-12-22T01:28:52;3.30;99.90
7000;DHT22;3540;53.242;10.408;2023-12-22T01:31:18;3.30;99.90
7000;DHT22;3540;53.242;10.408;2023-12-22T01:33:43;3.20;99.90
7000;DHT22;3540;53.242;10.408;2023-12-22T01:36:09;3.20;99.90
7000;DHT22;3540;53.242;10.408;2023-12-22T01:38:34;3.20;99.90
7000;DHT22;3540;53.242;10.408;2023-12-22T01:41:00;3.10;99.90
7000;DHT22;3540;53.242;10.408;2023-12-22T01:43:25;3.10;99.90
7000;DHT22;3540;53.242;10.408;2023-12-22T01:45:56;3.10;99.90
7000;DHT22;3540;53.242;10.408;2023-12-22T01:48:23;3.10;99.90
7000;DHT22;3540;53.242;10.408;2023-12-22T01:50:52;3.10;99.90
7000;DHT22;3540;53.242;10.408;2023-12-22T01:53:22;3.10;99.90
7000;DHT22;3540;53.242;10.408;2023-12-22T01:55:50;3.20;99.90
7000;DHT22;3540;53.242;10.408;2023-12-22T01:58:17;3.20;99.90
7000;DHT22;3540;53.242;10.408;2023-12-22T02:00:43;3.10;99.90
7000;DHT22;3540;53.242;10.408;2023-12-22T02:03:09;3.10;99.90
7000;DHT22;3540;53.242;10.408;2023-12-22T02:05:35;3.10;99.90
7000;DHT22;3540;53.242;10.408;2023-12-22T02:08:00;3.10;99.90
7000;DHT22;3540;53.242;10.408;2023-12-22T02:10:26;3.10;99.90
7000;DHT22;3540;53.242;10.408;2023-12-22T02:12:52;3.10;99.90
7000;DHT22;3540;53.242;10.408;2023-12-22T02:15:18;3.20;99.90
7000;DHT22;3540;53.242;10.408;2023-12-22T02:17:47;3.20;99.90
7000;DHT22;3540;53.242;10.408;2023-12-22T02:20:14;3.20;99.90
7000;DHT22;3540;53.242;10.408;2023-12-22T02:22:40;3.20;99.90
7000;DHT22;3540;53.242;10.408;2023-12-22T02:25:06;3.20;99.90
7000;DHT22;3540;53.242;10.408;2023-12-22T02:27:41;3.20;99.90
7000;DHT22;3540;53.242;10.408;2023-12-22T02:30:37;3.20;99.90
7000;DHT22;3540;53.242;10.408;2023-12-22T02:33:03;3.20;99.90
7000;DHT22;3540;53.242;10.408;2023-12-22T02:35:32;3.20;99.90
7000;DHT22;3540;53.242;10.408;2023-12-22T02:37:59;3.20;99.90
7000;DHT22;3540;53.242;10.408;2023-12-22T02:40:26;3.10;99.90
7000;DHT22;3540;53.242;10.408;2023-12-22T02:42:52;3.10;99.90
7000;DHT22;3540;53.242;10.408;2023-12-22T02:45:19;3.00;99.90
7000;DHT22;3540;53.242;10.408;2023-12-22T02:47:45;3.00;99.90
7000;DHT22;3540;53.242;10.408;2023-12-22T02:50:15;3.00;99.90
7000;DHT22;3540;53.242;10.408;2023-12-22T02:52:42;2.90;99.90
7000;DHT22;3540;53.242;10.408;2023-12-22T02:55:08;3.00;99.90
7000;DHT22;3540;53.242;10.408;2023-12-22T02:57:33;3.00;99.90
7000;DHT22;3540;53.242;10.408;2023-12-22T02:59:59;3.10;99.90
7000;DHT22;3540;53.242;10.408;2023-12-22T03:02:25;3.20;99.90
7000;DHT22;3540;53.242;10.408;2023-12-22T03:04:51;3.30;99.90
7000;DHT22;3540;53.242;10.408;2023-12-22T03:07:16;3.30;99.90
7000;DHT22;3540;53.242;10.408;2023-12-22T03:09:42;3.40;99.90
7000;DHT22;3540;53.242;10.408;2023-12-22T03:12:08;3.40;99.90
7000;DHT22;3540;53.242;10.408;2023-12-22T03:14:35;3.40;99.90
7000;DHT22;3540;53.242;10.408;2023-12-22T03:17:02;3.50;99.90
7000;DHT22;3540;53.242;10.408;2023-12-22T03:19:28;3.50;99.90
7000;DHT22;3540;53.242;10.408;2023-12-22T03:21:54;3.60;99.90
7000;DHT22;3540;53.242;10.408;2023-12-22T03:24:20;3.60;99.90
7000;DHT22;3540;53.242;10.408;2023-12-22T03:26:47;3.60;99.90
7000;DHT22;3540;53.242;10.408;2023-12-22T03:29:13;3.70;99.90
7000;DHT22;3540;53.242;10.408;2023-12-22T03:31:39;3.70;99.90
7000;DHT22;3540;53.242;10.408;2023-12-22T03:34:04;3.70;99.90
7000;DHT22;3540;53.242;10.408;2023-12-22T03:36:30;3.40;99.90
7000;DHT22;3540;53.242;10.408;2023-12-22T03:38:55;2.90;99.90
7000;DHT22;3540;53.242;10.408;2023-12-22T03:41:21;2.70;99.90
7000;DHT22;3540;53.242;10.408;2023-12-22T03:43:47;2.60;99.90
7000;DHT22;3540;53.242;10.408;2023-12-22T03:46:12;2.40;99.90
7000;DHT22;3540;53.242;10.408;2023-12-22T03:48:38;2.40;99.90
7000;DHT22;3540;53.242;10.408;2023-12-22T03:51:04;2.30;99.90
7000;DHT22;3540;53.242;10.408;2023-12-22T03:53:29;2.20;99.90
7000;DHT22;3540;53.242;10.408;2023-12-22T03:55:55;2.00;99.90
7000;DHT22;3540;53.242;10.408;2023-12-22T03:58:21;2.00;99.90
7000;DHT22;3540;53.242;10.408;2023-12-22T04:00:47;2.00;99.90
7000;DHT22;3540;53.242;10.408;2023-12-22T04:03:13;2.10;99.90
7000;DHT22;3540;53.242;10.408;2023-12-22T04:05:39;2.20;99.90
7000;DHT22;3540;53.242;10.408;2023-12-22T04:08:05;2.20;99.90
7000;DHT22;3540;53.242;10.408;2023-12-22T04:10:31;2.20;99.90
7000;DHT22;3540;53.242;10.408;2023-12-22T04:12:56;2.30;99.90
7000;DHT22;3540;53.242;10.408;2023-12-22T04:15:22;2.30;99.90
7000;DHT22;3540;53.242;10.408;2023-12-22T04:17:47;2.30;99.90
7000;DHT22;3540;53.242;10.408;2023-12-22T04:20:13;2.40;99.90
7000;DHT22;3540;53.242;10.408;2023-12-22T04:22:39;2.40;99.90
7000;DHT22;3540;53.242;10.408;2023-12-22T04:25:05;2.40;99.90
7000;DHT22;3540;53.242;10.408;2023-12-22T04:27:31;2.40;99.90
7000;DHT22;3540;53.242;10.408;2023-12-22T04:29:57;2.40;99.90
7000;DHT22;3540;53.242;10.408;2023-12-22T04:32:23;2.40;99.90
7000;DHT22;3540;53.242;10.408;2023-12-22T04:34:48;2.40;99.90
7000;DHT22;3540;53.242;10.408;2023-12-22T04:37:14;2.40;99.90
7000;DHT22;3540;53.242;10.408;2023-12-22T04:39:40;2.40;99.90
7000;DHT22;3540;53.242;10.408;2023-12-22T04:42:05;2.40;99.90
7000;DHT22;3540;53.242;10.408;2023-12-22T04:44:31;2.40;99.90
7000;DHT22;3540;53.242;10.408;2023-12-22T04:46:57;2.50;99.90
7000;DHT22;3540;53.242;10.408;2023-12-22T04:49:22;2.60;99.90
7000;DHT22;3540;53.242;10.408;2023-12-22T04:51:48;2.60;99.90
7000;DHT22;3540;53.242;10.408;2023-12-22T04:54:13;2.60;99.90
7000;DHT22;3540;53.242;10.408;2023-12-22T04:56:39;2.70;99.90
7000;DHT22;3540;53.242;10.408;2023-12-22T04:59:05;2.80;99.90
7000;DHT22;3540;53.242;10.408;2023-12-22T05:01:30;2.80;99.90
7000;DHT22;3540;53.242;10.408;2023-12-22T05:03:56;2.90;99.90
7000;DHT22;3540;53.242;10.408;2023-12-22T05:06:22;2.90;99.90
7000;DHT22;3540;53.242;10.408;2023-12-22T05:08:47;3.00;99.90
7000;DHT22;3540;53.242;10.408;2023-12-22T05:11:13;3.10;99.90
7000;DHT22;3540;53.242;10.408;2023-12-22T05:13:39;3.20;99.90
7000;DHT22;3540;53.242;10.408;2023-12-22T05:16:06;3.30;99.90
7000;DHT22;3540;53.242;10.408;2023-12-22T05:18:31;3.30;99.90
7000;DHT22;3540;53.242;10.408;2023-12-22T05:20:57;3.40;99.90
7000;DHT22;3540;53.242;10.408;2023-12-22T05:23:22;3.40;99.90
7000;DHT22;3540;53.242;10.408;2023-12-22T05:25:48;3.40;99.90
7000;DHT22;3540;53.242;10.408;2023-12-22T05:28:13;3.40;99.90
7000;DHT22;3540;53.242;10.408;2023-12-22T05:30:39;3.40;99.90
7000;DHT22;3540;53.242;10.408;2023-12-22T05:33:05;3.50;99.90
7000;DHT22;3540;53.242;10.408;2023-12-22T05:35:30;3.50;99.90
7000;DHT22;3540;53.242;10.408;2023-12-22T05:37:56;3.50;99.90
7000;DHT22;3540;53.242;10.408;2023-12-22T05:40:22;3.50;99.90
7000;DHT22;3540;53.242;10.408;2023-12-22T05:42:48;3.50;99.90
7000;DHT22;3540;53.242;10.408;2023-12-22T05:45:15;3.50;99.90
7000;DHT22;3540;53.242;10.408;2023-12-22T05:47:40;3.50;99.90
7000;DHT22;3540;53.242;10.408;2023-12-22T05:50:07;3.60;99.90
7000;DHT22;3540;53.242;10.408;2023-12-22T05:52:33;3.50;99.90
7000;DHT22;3540;53.242;10.408;2023-12-22T05:54:59;3.40;99.90
7000;DHT22;3540;53.242;10.408;2023-12-22T05:57:27;3.40;99.90
7000;DHT22;3540;53.242;10.408;2023-12-22T05:59:53;3.40;99.90
7000;DHT22;3540;53.242;10.408;2023-12-22T06:02:19;3.30;99.90
7000;DHT22;3540;53.242;10.408;2023-12-22T06:04:44;3.30;99.90
7000;DHT22;3540;53.242;10.408;2023-12-22T06:07:10;3.20;99.90
7000;DHT22;3540;53.242;10.408;2023-12-22T06:09:36;3.30;99.90
7000;DHT22;3540;53.242;10.408;2023-12-22T06:12:02;3.30;99.90
7000;DHT22;3540;53.242;10.408;2023-12-22T06:14:28;3.20;99.90
7000;DHT22;3540;53.242;10.408;2023-12-22T06:16:54;3.30;99.90
7000;DHT22;3540;53.242;10.408;2023-12-22T06:19:22;3.00;99.90
7000;DHT22;3540;53.242;10.408;2023-12-22T06:21:49;2.80;99.90
7000;DHT22;3540;53.242;10.408;2023-12-22T06:24:15;2.60;99.90
7000;DHT22;3540;53.242;10.408;2023-12-22T06:26:41;2.50;99.90
7000;DHT22;3540;53.242;10.408;2023-12-22T06:29:07;2.50;99.90
7000;DHT22;3540;53.242;10.408;2023-12-22T06:31:33;2.50;99.90
7000;DHT22;3540;53.242;10.408;2023-12-22T06:33:59;2.60;99.90
7000;DHT22;3540;53.242;10.408;2023-12-22T06:36:27;2.70;99.90
7000;DHT22;3540;53.242;10.408;2023-12-22T06:38:53;2.70;99.90
7000;DHT22;3540;53.242;10.408;2023-12-22T06:41:30;2.60;99.90
7000;DHT22;3540;53.242;10.408;2023-12-22T06:43:59;2.60;99.90
7000;DHT22;3540;53.242;10.408;2023-12-22T06:46:28;2.70;99.90
7000;DHT22;3540;53.242;10.408;2023-12-22T06:48:57;2.70;99.90
7000;DHT22;3540;53.242;10.408;2023-12-22T06:51:27;2.70;99.90
7000;DHT22;3540;53.242;10.408;2023-12-22T06:53:54;2.70;99.90
7000;DHT22;3540;53.242;10.408;2023-12-22T06:56:27;2.70;99.90
7000;DHT22;3540;53.242;10.408;2023-12-22T06:58:55;2.80;99.90
7000;DHT22;3540;53.242;10.408;2023-12-22T07:01:25;2.70;99.90
7000;DHT22;3540;53.242;10.408;2023-12-22T07:03:51;2.70;99.90
7000;DHT22;3540;53.242;10.408;2023-12-22T07:06:20;2.60;99.90
7000;DHT22;3540;53.242;10.408;2023-12-22T07:11:49;2.30;99.90
7000;DHT22;3540;53.242;10.408;2023-12-22T07:14:21;2.30;99.90
7000;DHT22;3540;53.242;10.408;2023-12-22T07:16:47;2.30;99.90
7000;DHT22;3540;53.242;10.408;2023-12-22T07:19:13;2.40;99.90
7000;DHT22;3540;53.242;10.408;2023-12-22T07:21:39;2.40;99.90
7000;DHT22;3540;53.242;10.408;2023-12-22T07:24:06;2.50;99.90
7000;DHT22;3540;53.242;10.408;2023-12-22T07:26:32;2.60;99.90
7000;DHT22;3540;53.242;10.408;2023-12-22T07:28:57;2.70;99.90
7000;DHT22;3540;53.242;10.408;2023-12-22T07:31:24;2.80;99.90
7000;DHT22;3540;53.242;10.408;2023-12-22T07:33:49;2.90;99.90
7000;DHT22;3540;53.242;10.408;2023-12-22T07:36:15;2.90;99.90
7000;DHT22;3540;53.242;10.408;2023-12-22T07:38:41;2.90;99.90
7000;DHT22;3540;53.242;10.408;2023-12-22T07:41:06;3.00;99.90
7000;DHT22;3540;53.242;10.408;2023-12-22T07:43:32;3.00;99.90
7000;DHT22;3540;53.242;10.408;2023-12-22T07:45:58;3.00;99.90
7000;DHT22;3540;53.242;10.408;2023-12-22T07:48:23;3.10;99.90
7000;DHT22;3540;53.242;10.408;2023-12-22T07:50:52;3.20;99.90
7000;DHT22;3540;53.242;10.408;2023-12-22T07:53:17;3.30;99.90
7000;DHT22;3540;53.242;10.408;2023-12-22T07:55:44;3.30;99.90
7000;DHT22;3540;53.242;10.408;2023-12-22T07:58:09;3.40;99.90
7000;DHT22;3540;53.242;10.408;2023-12-22T08:00:35;3.40;99.90
7000;DHT22;3540;53.242;10.408;2023-12-22T08:03:01;3.40;99.90
7000;DHT22;3540;53.242;10.408;2023-12-22T08:05:26;3.40;99.90
7000;DHT22;3540;53.242;10.408;2023-12-22T08:07:52;3.50;99.90
7000;DHT22;3540;53.242;10.408;2023-12-22T08:10:18;3.40;99.90
7000;DHT22;3540;53.242;10.408;2023-12-22T08:12:44;3.00;99.90
7000;DHT22;3540;53.242;10.408;2023-12-22T08:15:10;2.70;99.90
7000;DHT22;3540;53.242;10.408;2023-12-22T08:17:50;2.60;99.90
7000;DHT22;3540;53.242;10.408;2023-12-22T08:20:18;2.50;99.90
7000;DHT22;3540;53.242;10.408;2023-12-22T08:22:48;2.50;99.90
7000;DHT22;3540;53.242;10.408;2023-12-22T08:25:14;2.50;99.90
7000;DHT22;3540;53.242;10.408;2023-12-22T08:27:40;2.50;99.90
7000;DHT22;3540;53.242;10.408;2023-12-22T08:30:07;2.50;99.90
7000;DHT22;3540;53.242;10.408;2023-12-22T08:32:33;2.50;99.90
7000;DHT22;3540;53.242;10.408;2023-12-22T08:34:59;2.50;99.90
7000;DHT22;3540;53.242;10.408;2023-12-22T08:37:24;2.60;99.90
7000;DHT22;3540;53.242;10.408;2023-12-22T08:39:50;2.70;99.90
7000;DHT22;3540;53.242;10.408;2023-12-22T08:42:17;2.80;99.90
7000;DHT22;3540;53.242;10.408;2023-12-22T08:44:42;2.90;99.90
7000;DHT22;3540;53.242;10.408;2023-12-22T08:47:08;3.00;99.90
7000;DHT22;3540;53.242;10.408;2023-12-22T08:49:34;3.10;99.90
7000;DHT22;3540;53.242;10.408;2023-12-22T08:51:59;3.20;99.90
7000;DHT22;3540;53.242;10.408;2023-12-22T08:54:25;3.30;99.90
7000;DHT22;3540;53.242;10.408;2023-12-22T08:56:51;3.30;99.90
7000;DHT22;3540;53.242;10.408;2023-12-22T08:59:18;3.30;99.90
7000;DHT22;3540;53.242;10.408;2023-12-22T09:01:43;3.40;99.90
7000;DHT22;3540;53.242;10.408;2023-12-22T09:04:12;3.40;99.90
7000;DHT22;3540;53.242;10.408;2023-12-22T09:06:38;3.30;99.90
7000;DHT22;3540;53.242;10.408;2023-12-22T09:09:04;3.20;99.90
7000;DHT22;3540;53.242;10.408;2023-12-22T09:11:30;3.20;99.90
7000;DHT22;3540;53.242;10.408;2023-12-22T09:13:55;3.30;99.90
7000;DHT22;3540;53.242;10.408;2023-12-22T09:16:22;3.30;99.90
7000;DHT22;3540;53.242;10.408;2023-12-22T09:18:48;3.40;99.90
7000;DHT22;3540;53.242;10.408;2023-12-22T09:21:15;3.50;99.90
7000;DHT22;3540;53.242;10.408;2023-12-22T09:23:43;3.50;99.90
7000;DHT22;3540;53.242;10.408;2023-12-22T09:26:11;3.50;99.90
7000;DHT22;3540;53.242;10.408;2023-12-22T09:28:36;3.60;99.90
7000;DHT22;3540;53.242;10.408;2023-12-22T09:31:03;3.70;99.90
7000;DHT22;3540;53.242;10.408;2023-12-22T09:33:31;3.80;99.90
7000;DHT22;3540;53.242;10.408;2023-12-22T09:35:56;3.90;99.90
7000;DHT22;3540;53.242;10.408;2023-12-22T09:38:22;3.90;99.90
7000;DHT22;3540;53.242;10.408;2023-12-22T09:40:49;3.80;99.90
7000;DHT22;3540;53.242;10.408;2023-12-22T09:43:15;3.90;99.90
7000;DHT22;3540;53.242;10.408;2023-12-22T09:45:45;3.90;99.90
7000;DHT22;3540;53.242;10.408;2023-12-22T09:48:12;3.90;99.90
7000;DHT22;3540;53.242;10.408;2023-12-22T09:50:43;3.90;99.90
7000;DHT22;3540;53.242;10.408;2023-12-22T09:53:12;3.90;99.90
7000;DHT22;3540;53.242;10.408;2023-12-22T09:55:42;3.90;99.90
7000;DHT22;3540;53.242;10.408;2023-12-22T09:58:10;4.00;99.90
7000;DHT22;3540;53.242;10.408;2023-12-22T10:00:36;4.10;99.90
7000;DHT22;3540;53.242;10.408;2023-12-22T10:03:06;4.10;99.90
7000;DHT22;3540;53.242;10.408;2023-12-22T10:05:32;4.10;99.90
7000;DHT22;3540;53.242;10.408;2023-12-22T10:08:00;4.20;99.90
7000;DHT22;3540;53.242;10.408;2023-12-22T10:10:28;4.20;99.90
7000;DHT22;3540;53.242;10.408;2023-12-22T10:12:55;4.20;99.90
7000;DHT22;3540;53.242;10.408;2023-12-22T10:15:22;4.20;99.90
7000;DHT22;3540;53.242;10.408;2023-12-22T10:17:52;4.30;99.90
7000;DHT22;3540;53.242;10.408;2023-12-22T10:20:18;4.50;99.90
7000;DHT22;3540;53.242;10.408;2023-12-22T10:22:43;4.60;99.90
7000;DHT22;3540;53.242;10.408;2023-12-22T10:25:09;4.70;99.90
7000;DHT22;3540;53.242;10.408;2023-12-22T10:27:38;4.80;99.90
7000;DHT22;3540;53.242;10.408;2023-12-22T10:30:07;4.90;99.90
7000;DHT22;3540;53.242;10.408;2023-12-22T10:32:43;5.00;99.90
7000;DHT22;3540;53.242;10.408;2023-12-22T10:35:09;5.00;99.90
7000;DHT22;3540;53.242;10.408;2023-12-22T10:37:35;5.00;99.90
7000;DHT22;3540;53.242;10.408;2023-12-22T10:40:04;4.90;99.90
7000;DHT22;3540;53.242;10.408;2023-12-22T10:42:30;4.90;99.90
7000;DHT22;3540;53.242;10.408;2023-12-22T10:44:56;4.90;99.90
7000;DHT22;3540;53.242;10.408;2023-12-22T10:47:22;4.90;99.90
7000;DHT22;3540;53.242;10.408;2023-12-22T10:49:48;4.90;99.90
7000;DHT22;3540;53.242;10.408;2023-12-22T10:52:18;4.90;99.90
7000;DHT22;3540;53.242;10.408;2023-12-22T10:54:44;4.80;99.90
7000;DHT22;3540;53.242;10.408;2023-12-22T10:57:11;4.80;99.90
7000;DHT22;3540;53.242;10.408;2023-12-22T10:59:44;4.80;99.90
7000;DHT22;3540;53.242;10.408;2023-12-22T11:02:17;4.80;99.90
7000;DHT22;3540;53.242;10.408;2023-12-22T11:04:52;4.70;99.90
7000;DHT22;3540;53.242;10.408;2023-12-22T11:07:24;4.60;99.90
7000;DHT22;3540;53.242;10.408;2023-12-22T11:09:56;4.50;99.90
7000;DHT22;3540;53.242;10.408;2023-12-22T11:12:21;4.40;99.90
7000;DHT22;3540;53.242;10.408;2023-12-22T11:14:48;4.20;99.90
7000;DHT22;3540;53.242;10.408;2023-12-22T11:17:19;4.10;99.90
7000;DHT22;3540;53.242;10.408;2023-12-22T11:19:47;3.90;99.90
7000;DHT22;3540;53.242;10.408;2023-12-22T11:22:16;3.80;99.90
7000;DHT22;3540;53.242;10.408;2023-12-22T11:24:46;3.80;99.90
7000;DHT22;3540;53.242;10.408;2023-12-22T11:27:13;3.80;99.90
7000;DHT22;3540;53.242;10.408;2023-12-22T11:29:42;3.80;99.90
7000;DHT22;3540;53.242;10.408;2023-12-22T11:32:09;3.80;99.90
7000;DHT22;3540;53.242;10.408;2023-12-22T11:34:36;3.70;99.90
7000;DHT22;3540;53.242;10.408;2023-12-22T11:37:03;3.60;99.90
7000;DHT22;3540;53.242;10.408;2023-12-22T11:39:30;3.50;99.90
7000;DHT22;3540;53.242;10.408;2023-12-22T11:41:56;3.60;99.90
7000;DHT22;3540;53.242;10.408;2023-12-22T11:44:23;3.60;99.90
7000;DHT22;3540;53.242;10.408;2023-12-22T11:46:49;3.50;99.90
7000;DHT22;3540;53.242;10.408;2023-12-22T11:49:14;3.40;99.90
7000;DHT22;3540;53.242;10.408;2023-12-22T11:51:40;3.40;99.90
7000;DHT22;3540;53.242;10.408;2023-12-22T12:02:57;3.00;99.90
7000;DHT22;3540;53.242;10.408;2023-12-22T12:05:23;3.00;99.90
7000;DHT22;3540;53.242;10.408;2023-12-22T12:07:49;2.90;99.90
7000;DHT22;3540;53.242;10.408;2023-12-22T12:13:12;2.90;99.90
7000;DHT22;3540;53.242;10.408;2023-12-22T12:15:41;2.90;99.90
7000;DHT22;3540;53.242;10.408;2023-12-22T12:18:08;3.00;99.90
7000;DHT22;3540;53.242;10.408;2023-12-22T12:20:35;3.00;99.90
7000;DHT22;3540;53.242;10.408;2023-12-22T12:23:03;3.20;99.90
7000;DHT22;3540;53.242;10.408;2023-12-22T12:25:32;3.20;99.90
7000;DHT22;3540;53.242;10.408;2023-12-22T12:28:02;3.30;99.90
7000;DHT22;3540;53.242;10.408;2023-12-22T12:30:28;3.30;99.90
7000;DHT22;3540;53.242;10.408;2023-12-22T12:32:54;3.40;99.90
7000;DHT22;3540;53.242;10.408;2023-12-22T12:35:20;3.40;99.90
7000;DHT22;3540;53.242;10.408;2023-12-22T12:37:49;3.40;99.90
7000;DHT22;3540;53.242;10.408;2023-12-22T12:40:16;3.40;99.90
7000;DHT22;3540;53.242;10.408;2023-12-22T12:42:44;3.50;99.90
7000;DHT22;3540;53.242;10.408;2023-12-22T12:45:10;3.50;99.90
7000;DHT22;3540;53.242;10.408;2023-12-22T12:47:35;3.50;99.90
7000;DHT22;3540;53.242;10.408;2023-12-22T12:50:02;3.60;99.90
7000;DHT22;3540;53.242;10.408;2023-12-22T12:52:28;3.70;99.90
7000;DHT22;3540;53.242;10.408;2023-12-22T12:54:54;3.60;99.90
7000;DHT22;3540;53.242;10.408;2023-12-22T12:57:21;3.70;99.90
7000;DHT22;3540;53.242;10.408;2023-12-22T12:59:48;3.70;99.90
7000;DHT22;3540;53.242;10.408;2023-12-22T13:02:18;3.70;99.90
7000;DHT22;3540;53.242;10.408;2023-12-22T13:04:45;3.70;99.90
7000;DHT22;3540;53.242;10.408;2023-12-22T13:07:11;3.70;99.90
7000;DHT22;3540;53.242;10.408;2023-12-22T13:09:38;3.70;99.90
7000;DHT22;3540;53.242;10.408;2023-12-22T13:12:05;3.70;99.90
7000;DHT22;3540;53.242;10.408;2023-12-22T13:14:30;3.80;99.90
7000;DHT22;3540;53.242;10.408;2023-12-22T13:16:57;3.80;99.90
7000;DHT22;3540;53.242;10.408;2023-12-22T13:19:24;3.90;99.90
7000;DHT22;3540;53.242;10.408;2023-12-22T13:21:50;3.90;99.90
7000;DHT22;3540;53.242;10.408;2023-12-22T13:24:17;4.00;99.90
7000;DHT22;3540;53.242;10.408;2023-12-22T13:26:43;4.00;99.90
7000;DHT22;3540;53.242;10.408;2023-12-22T13:29:10;4.00;99.90
7000;DHT22;3540;53.242;10.408;2023-12-22T13:31:37;4.00;99.90
7000;DHT22;3540;53.242;10.408;2023-12-22T13:34:08;4.10;99.90
7000;DHT22;3540;53.242;10.408;2023-12-22T13:36:34;4.10;99.90
7000;DHT22;3540;53.242;10.408;2023-12-22T13:39:02;4.10;99.90
7000;DHT22;3540;53.242;10.408;2023-12-22T13:41:34;4.10;99.90
7000;DHT22;3540;53.242;10.408;2023-12-22T13:44:04;4.20;99.90
7000;DHT22;3540;53.242;10.408;2023-12-22T13:46:30;4.20;99.90
7000;DHT22;3540;53.242;10.408;2023-12-22T13:48:56;4.20;99.90
7000;DHT22;3540;53.242;10.408;2023-12-22T13:51:22;4.20;99.90
7000;DHT22;3540;53.242;10.408;2023-12-22T13:53:49;4.20;99.90
7000;DHT22;3540;53.242;10.408;2023-12-22T13:56:15;4.20;99.90
7000;DHT22;3540;53.242;10.408;2023-12-22T13:58:47;4.30;99.90
7000;DHT22;3540;53.242;10.408;2023-12-22T14:01:14;4.20;99.90
7000;DHT22;3540;53.242;10.408;2023-12-22T14:03:41;4.30;99.90
7000;DHT22;3540;53.242;10.408;2023-12-22T14:06:07;4.30;99.90
7000;DHT22;3540;53.242;10.408;2023-12-22T14:08:36;4.30;99.90
7000;DHT22;3540;53.242;10.408;2023-12-22T14:11:02;4.30;99.90
7000;DHT22;3540;53.242;10.408;2023-12-22T14:13:28;4.30;99.90
7000;DHT22;3540;53.242;10.408;2023-12-22T14:15:53;4.40;99.90
7000;DHT22;3540;53.242;10.408;2023-12-22T14:18:19;4.30;99.90
7000;DHT22;3540;53.242;10.408;2023-12-22T14:20:45;4.40;99.90
7000;DHT22;3540;53.242;10.408;2023-12-22T14:23:11;4.40;99.90
7000;DHT22;3540;53.242;10.408;2023-12-22T14:25:42;4.40;99.90
7000;DHT22;3540;53.242;10.408;2023-12-22T14:28:08;4.40;99.90
7000;DHT22;3540;53.242;10.408;2023-12-22T14:30:33;4.40;99.90
7000;DHT22;3540;53.242;10.408;2023-12-22T14:33:02;4.50;99.90
7000;DHT22;3540;53.242;10.408;2023-12-22T14:35:27;4.50;99.90
7000;DHT22;3540;53.242;10.408;2023-12-22T14:37:53;4.50;99.90
7000;DHT22;3540;53.242;10.408;2023-12-22T14:40:19;4.50;99.90
7000;DHT22;3540;53.242;10.408;2023-12-22T14:42:45;4.50;99.90
7000;DHT22;3540;53.242;10.408;2023-12-22T14:45:10;4.50;99.90
7000;DHT22;3540;53.242;10.408;2023-12-22T14:47:36;4.50;99.90
7000;DHT22;3540;53.242;10.408;2023-12-22T14:50:02;4.50;99.90
7000;DHT22;3540;53.242;10.408;2023-12-22T14:52:31;4.50;99.90
7000;DHT22;3540;53.242;10.408;2023-12-22T14:55:00;4.40;99.90
7000;DHT22;3540;53.242;10.408;2023-12-22T14:57:29;4.30;99.90
7000;DHT22;3540;53.242;10.408;2023-12-22T14:59:57;4.30;99.90
7000;DHT22;3540;53.242;10.408;2023-12-22T15:02:23;4.20;99.90
7000;DHT22;3540;53.242;10.408;2023-12-22T15:04:49;4.10;99.90
7000;DHT22;3540;53.242;10.408;2023-12-22T15:07:15;4.10;99.90
7000;DHT22;3540;53.242;10.408;2023-12-22T15:09:42;4.10;99.90
7000;DHT22;3540;53.242;10.408;2023-12-22T15:12:07;4.10;99.90
7000;DHT22;3540;53.242;10.408;2023-12-22T15:14:33;4.00;99.90
7000;DHT22;3540;53.242;10.408;2023-12-22T15:16:59;4.00;99.90
7000;DHT22;3540;53.242;10.408;2023-12-22T15:19:24;3.90;99.90
7000;DHT22;3540;53.242;10.408;2023-12-22T15:21:51;3.90;99.90
7000;DHT22;3540;53.242;10.408;2023-12-22T15:24:17;3.90;99.90
7000;DHT22;3540;53.242;10.408;2023-12-22T15:26:42;4.00;99.90
7000;DHT22;3540;53.242;10.408;2023-12-22T15:29:08;4.00;99.90
7000;DHT22;3540;53.242;10.408;2023-12-22T15:31:34;4.00;99.90
7000;DHT22;3540;53.242;10.408;2023-12-22T15:34:00;4.00;99.90
7000;DHT22;3540;53.242;10.408;2023-12-22T15:36:26;3.90;99.90
7000;DHT22;3540;53.242;10.408;2023-12-22T15:38:53;3.90;99.90
7000;DHT22;3540;53.242;10.408;2023-12-22T15:41:19;3.90;99.90
7000;DHT22;3540;53.242;10.408;2023-12-22T15:43:44;3.90;99.90
7000;DHT22;3540;53.242;10.408;2023-12-22T15:46:10;3.90;99.90
7000;DHT22;3540;53.242;10.408;2023-12-22T15:48:37;3.90;99.90
7000;DHT22;3540;53.242;10.408;2023-12-22T15:51:10;3.90;99.90
7000;DHT22;3540;53.242;10.408;2023-12-22T15:53:40;3.90;99.90
7000;DHT22;3540;53.242;10.408;2023-12-22T15:56:10;3.90;99.90
7000;DHT22;3540;53.242;10.408;2023-12-22T15:58:37;3.90;99.90
7000;DHT22;3540;53.242;10.408;2023-12-22T16:01:03;3.90;99.90
7000;DHT22;3540;53.242;10.408;2023-12-22T16:03:29;3.80;99.90
7000;DHT22;3540;53.242;10.408;2023-12-22T16:05:55;3.80;99.90
7000;DHT22;3540;53.242;10.408;2023-12-22T16:08:21;3.80;99.90
7000;DHT22;3540;53.242;10.408;2023-12-22T16:10:47;3.70;99.90
7000;DHT22;3540;53.242;10.408;2023-12-22T16:13:13;3.70;99.90